createdAt,value
2022-12-03T00:05:07.371Z,31.80
2022-12-03T00:11:10.780Z,31.48
2022-12-03T00:17:15.479Z,29.52
2022-12-03T00:23:19.001Z,30.88
2022-12-03T00:29:22.352Z,31.55
2022-12-03T00:35:27.245Z,30.00
2022-12-03T00:41:30.934Z,30.95
2022-12-03T00:47:34.276Z,26.88
2022-12-03T00:53:38.949Z,28.98
2022-12-03T00:59:42.306Z,28.00
2022-12-03T01:05:45.713Z,25.75
2022-12-03T01:11:50.641Z,26.15
2022-12-03T01:17:54.329Z,24.42
2022-12-03T01:23:57.957Z,27.38
2022-12-03T01:30:02.805Z,26.98
2022-12-03T01:36:06.328Z,26.80
2022-12-03T01:42:10.295Z,25.25
2022-12-03T01:48:16.590Z,26.00
2022-12-03T01:54:21.194Z,25.45
2022-12-03T02:00:26.947Z,24.35
2022-12-03T02:06:31.904Z,25.80
2022-12-03T02:12:36.264Z,21.13
2022-12-03T02:18:39.615Z,22.48
2022-12-03T02:24:47.106Z,25.60
2022-12-03T02:30:52.022Z,24.10
2022-12-03T02:36:55.525Z,22.77
2022-12-03T02:43:00.525Z,23.92
2022-12-03T02:49:07.500Z,22.27
2022-12-03T02:55:11.232Z,24.17
2022-12-03T03:01:15.479Z,23.38
2022-12-03T03:07:20.347Z,20.95
2022-12-03T03:13:23.905Z,23.38
2022-12-03T03:19:27.950Z,23.55
2022-12-03T03:25:32.728Z,20.90
2022-12-03T03:31:36.217Z,21.58
2022-12-03T03:37:40.196Z,23.92
2022-12-03T03:43:45.915Z,24.05
2022-12-03T03:49:50.855Z,22.35
2022-12-03T03:55:54.459Z,24.67
2022-12-03T04:01:59.176Z,23.20
2022-12-03T04:08:03.006Z,22.70
2022-12-03T04:14:06.471Z,24.00
2022-12-03T04:20:11.963Z,24.60
2022-12-03T04:26:33.243Z,26.95
2022-12-03T04:32:54.358Z,26.00
2022-12-03T04:38:59.325Z,25.08
2022-12-03T04:45:02.726Z,26.15
2022-12-03T04:51:06.292Z,25.52
2022-12-03T04:57:11.296Z,24.30
2022-12-03T05:03:14.625Z,23.83
2022-12-03T05:09:18.044Z,26.33
2022-12-03T05:15:23.190Z,28.42
2022-12-03T05:21:26.530Z,25.73
2022-12-03T05:27:30.050Z,26.58
2022-12-03T05:33:38.284Z,26.70
2022-12-03T05:39:44.435Z,27.25
2022-12-03T05:45:47.860Z,27.77
2022-12-03T05:51:58.199Z,24.35
2022-12-03T05:58:02.773Z,28.75
2022-12-03T06:04:06.293Z,27.55
2022-12-03T06:10:12.668Z,28.77
2022-12-03T06:16:16.059Z,26.73
2022-12-03T06:22:19.523Z,28.23
2022-12-03T06:28:24.241Z,29.90
2022-12-03T06:34:27.655Z,30.80
2022-12-03T06:40:31.014Z,31.55
2022-12-03T06:46:35.942Z,33.53
2022-12-03T06:52:39.340Z,31.00
2022-12-03T06:58:42.782Z,32.08
2022-12-03T07:04:47.780Z,33.30
2022-12-03T07:10:51.244Z,31.48
2022-12-03T07:16:54.629Z,32.30
2022-12-03T07:22:59.335Z,34.60
2022-12-03T07:29:02.668Z,35.05
2022-12-03T07:35:07.573Z,32.55
2022-12-03T07:41:12.377Z,27.95
2022-12-03T07:47:15.756Z,31.83
2022-12-03T07:53:19.282Z,37.33
2022-12-03T07:59:24.002Z,43.60
2022-12-03T08:05:29.543Z,37.72
2022-12-03T08:11:34.064Z,33.33
2022-12-03T08:17:40.387Z,36.72
2022-12-03T08:23:43.747Z,35.03
2022-12-03T08:29:47.561Z,36.38
2022-12-03T08:35:52.439Z,35.15
2022-12-03T08:42:14.452Z,35.67
2022-12-03T08:48:27.442Z,35.03
2022-12-03T08:54:33.020Z,33.72
2022-12-03T09:00:36.471Z,36.28
2022-12-03T09:06:40.159Z,36.08
2022-12-03T09:12:44.971Z,34.72
2022-12-03T09:18:48.311Z,37.92
2022-12-03T09:24:51.984Z,34.42
2022-12-03T09:30:57.000Z,35.15
2022-12-03T09:37:00.387Z,36.47
2022-12-03T09:43:03.979Z,39.08
2022-12-03T09:49:15.334Z,38.45
2022-12-03T09:55:20.617Z,35.42
2022-12-03T10:01:27.929Z,36.90
2022-12-03T10:07:34.818Z,36.97
2022-12-03T10:13:38.689Z,35.53
2022-12-03T10:19:42.779Z,39.33
2022-12-03T10:25:53.065Z,36.05
2022-12-03T10:31:57.420Z,35.88
2022-12-03T10:38:02.165Z,35.33
2022-12-03T10:44:16.583Z,35.00
2022-12-03T10:50:21.260Z,34.33
2022-12-03T10:56:26.271Z,37.10
2022-12-03T11:02:31.000Z,36.70
2022-12-03T11:08:35.349Z,38.08
2022-12-03T11:15:05.367Z,35.88
2022-12-03T11:21:12.218Z,35.95
2022-12-03T11:27:20.953Z,33.33
2022-12-03T11:33:25.480Z,37.72
2022-12-03T11:39:43.705Z,34.40
2022-12-03T11:45:48.619Z,34.80
2022-12-03T11:51:52.241Z,39.38
2022-12-03T11:57:59.600Z,36.75
2022-12-03T12:04:04.636Z,35.65
2022-12-03T12:10:08.736Z,31.88
2022-12-03T12:16:12.286Z,34.80
2022-12-03T12:22:30.782Z,35.67
2022-12-03T12:28:34.157Z,34.97
2022-12-03T12:34:39.361Z,36.47
2022-12-03T12:40:45.543Z,38.05
2022-12-03T12:46:49.333Z,32.90
2022-12-03T12:52:57.167Z,34.65
2022-12-03T12:59:10.411Z,37.67
2022-12-03T13:05:15.126Z,36.20
2022-12-03T13:11:28.001Z,38.83
2022-12-03T13:17:32.712Z,37.78
2022-12-03T13:23:37.028Z,38.20
2022-12-03T13:29:40.400Z,36.00
2022-12-03T13:35:46.173Z,39.15
2022-12-03T13:42:07.240Z,35.72
2022-12-03T13:48:16.874Z,37.20
2022-12-03T13:54:25.905Z,35.70
2022-12-03T14:00:29.521Z,37.80
2022-12-03T14:06:33.799Z,41.15
2022-12-03T14:12:38.606Z,38.60
2022-12-03T14:18:41.939Z,38.97
2022-12-03T14:24:45.349Z,40.90
2022-12-03T14:30:50.139Z,40.40
2022-12-03T14:36:53.514Z,38.30
2022-12-03T14:42:57.426Z,38.83
2022-12-03T14:49:02.147Z,39.65
2022-12-03T14:55:06.019Z,39.55
2022-12-03T15:01:09.451Z,34.10
2022-12-03T15:07:14.466Z,35.20
2022-12-03T15:13:18.109Z,38.22
2022-12-03T15:19:21.518Z,40.40
2022-12-03T15:25:26.566Z,38.08
2022-12-03T15:31:29.971Z,37.03
2022-12-03T15:37:33.370Z,34.88
2022-12-03T15:43:38.103Z,35.55
2022-12-03T15:49:41.676Z,32.08
2022-12-03T15:55:45.377Z,37.25
2022-12-03T16:01:50.395Z,34.80
2022-12-03T16:07:53.945Z,33.15
2022-12-03T16:13:57.385Z,32.67
2022-12-03T16:20:02.215Z,35.00
2022-12-03T16:26:05.709Z,35.42
2022-12-03T16:32:09.124Z,36.50
2022-12-03T16:38:13.879Z,35.22
2022-12-03T16:44:32.108Z,33.88
2022-12-03T16:50:37.583Z,39.30
2022-12-03T16:56:42.298Z,36.00
2022-12-03T17:02:46.084Z,35.53
2022-12-03T17:08:50.141Z,37.00
2022-12-03T17:14:55.020Z,38.80
2022-12-03T17:20:58.458Z,40.23
2022-12-03T17:27:01.810Z,38.50
2022-12-03T17:33:06.566Z,35.10
2022-12-03T17:39:09.986Z,39.08
2022-12-03T17:45:13.824Z,34.13
2022-12-03T17:51:19.358Z,35.40
2022-12-03T17:57:22.858Z,33.53
2022-12-03T18:03:26.556Z,34.55
2022-12-03T18:09:31.691Z,36.67
2022-12-03T18:15:35.072Z,38.28
2022-12-03T18:21:38.422Z,34.60
2022-12-03T18:27:43.210Z,35.90
2022-12-03T18:33:46.626Z,33.00
2022-12-03T18:39:50.236Z,36.50
2022-12-03T18:45:55.066Z,35.38
2022-12-03T18:51:59.806Z,32.22
2022-12-03T18:58:03.703Z,34.55
2022-12-03T19:04:08.474Z,38.47
2022-12-03T19:10:12.276Z,32.88
2022-12-03T19:16:17.321Z,36.95
2022-12-03T19:22:22.156Z,33.97
2022-12-03T19:28:25.768Z,33.22
2022-12-03T19:34:29.335Z,41.83
2022-12-03T19:40:34.092Z,39.50
2022-12-03T19:46:37.469Z,38.58
2022-12-03T19:52:41.152Z,39.10
2022-12-03T19:58:46.694Z,36.08
2022-12-03T20:04:50.135Z,38.08
2022-12-03T20:10:53.538Z,37.13
2022-12-03T20:16:58.317Z,35.17
2022-12-03T20:23:01.727Z,36.28
2022-12-03T20:29:05.302Z,35.63
2022-12-03T20:35:10.724Z,37.55
2022-12-03T20:41:15.382Z,37.22
2022-12-03T20:47:19.379Z,38.67
2022-12-03T20:53:25.378Z,42.00
2022-12-03T20:59:29.094Z,36.83
2022-12-03T21:05:32.572Z,40.50
2022-12-03T21:11:39.099Z,37.03
2022-12-03T21:17:42.552Z,40.15
2022-12-03T21:23:46.340Z,36.92
2022-12-03T21:29:51.182Z,41.33
2022-12-03T21:35:54.571Z,42.40
2022-12-03T21:42:34.530Z,41.17
2022-12-03T21:48:23.188Z,41.40
2022-12-03T21:54:26.634Z,42.70
2022-12-03T22:00:30.090Z,42.85
2022-12-03T22:06:34.802Z,38.90
2022-12-03T22:12:38.352Z,42.75
2022-12-03T22:18:42.040Z,44.10
2022-12-03T22:24:46.943Z,38.70
2022-12-03T22:30:50.376Z,40.88
2022-12-03T22:36:53.837Z,41.00
2022-12-03T22:42:59.872Z,36.38
2022-12-03T22:49:07.100Z,38.10
2022-12-03T22:55:11.315Z,35.67
2022-12-03T23:01:22.350Z,42.30
2022-12-03T23:07:25.793Z,36.38
2022-12-03T23:13:29.615Z,34.80
2022-12-03T23:19:34.647Z,34.28
2022-12-03T23:25:38.382Z,39.78
2022-12-03T23:31:41.856Z,39.13
2022-12-03T23:37:46.652Z,36.70
2022-12-03T23:43:50.238Z,38.05
2022-12-03T23:49:53.943Z,41.03
2022-12-03T23:55:59.029Z,38.10
